Sycamore Square, Virginia
Current Conditions -  °F | °C
As of 6:55 PM on Thursday 27 Nov 2014 (Local Time) from KFCI Reporting Station
Broken Clouds Broken Clouds  
Wind Chill: 33°   Ceiling: 7500
Heat Index: 37°   Visibility: 10mi
Dew Point: 25°   Wind: 6mph
Humidity: 60%   Direction: 310°NW
Pressure: 30.14"   Gusts: NA
Location:  37.5382°N, 77.6692°W
Report Text: KFCI 272355Z AUTO 31005KT 10SM BKN075 03/M04 A3014 RMK AO1 10090 20020 400900020 52020
Loading
Personal Weather Stations






























Interactive Weather Map New forecast layout! Learn more

10-Day Weather Forecast

Advertisements
Track Severe Weather on mobile